createdAt,value
2019-01-08T00:00:45.789Z,8.40
2019-01-08T00:03:13.360Z,8.40
2019-01-08T00:05:40.830Z,8.40
2019-01-08T00:08:09.066Z,8.40
2019-01-08T00:10:36.915Z,8.40
2019-01-08T00:13:04.357Z,8.40
2019-01-08T00:15:32.601Z,8.40
2019-01-08T00:18:00.126Z,8.30
2019-01-08T00:20:27.599Z,8.40
2019-01-08T00:22:55.097Z,8.40
2019-01-08T00:25:22.578Z,8.40
2019-01-08T00:27:50.854Z,8.30
2019-01-08T00:30:18.400Z,8.30
2019-01-08T00:32:45.869Z,8.30
2019-01-08T00:35:14.114Z,8.30
2019-01-08T00:37:41.562Z,8.40
2019-01-08T00:40:09.024Z,8.30
2019-01-08T00:42:36.502Z,8.30
2019-01-08T00:45:04.071Z,8.30
2019-01-08T00:47:31.542Z,8.30
2019-01-08T00:49:59.007Z,8.30
2019-01-08T00:52:26.478Z,8.30
2019-01-08T00:54:54.857Z,8.30
2019-01-08T00:57:23.104Z,8.20
2019-01-08T00:59:50.553Z,8.20
2019-01-08T01:02:18.011Z,8.20
2019-01-08T01:04:45.462Z,8.10
2019-01-08T01:07:12.917Z,8.20
2019-01-08T01:09:40.388Z,8.20
2019-01-08T01:12:07.905Z,8.20
2019-01-08T01:14:35.381Z,8.20
2019-01-08T01:17:02.927Z,8.20
2019-01-08T01:19:30.491Z,8.20
2019-01-08T01:21:58.048Z,8.10
2019-01-08T01:24:25.521Z,8.10
2019-01-08T01:26:53.008Z,8.10
2019-01-08T01:29:21.252Z,8.10
2019-01-08T01:31:49.271Z,8.10
2019-01-08T01:34:17.499Z,8.00
2019-01-08T01:36:44.969Z,8.00
2019-01-08T01:39:12.434Z,8.00
2019-01-08T01:41:39.897Z,8.00
2019-01-08T01:44:07.357Z,8.10
2019-01-08T01:46:34.858Z,8.10
2019-01-08T01:49:02.289Z,8.10
2019-01-08T01:51:29.754Z,8.10
2019-01-08T01:53:57.316Z,8.00
2019-01-08T01:56:24.792Z,8.10
2019-01-08T01:58:53.049Z,8.00
2019-01-08T02:01:20.613Z,8.00
2019-01-08T02:03:48.072Z,8.10
2019-01-08T02:06:15.640Z,8.00
2019-01-08T02:08:43.110Z,8.00
2019-01-08T02:11:10.578Z,8.00
2019-01-08T02:13:38.045Z,8.00
2019-01-08T02:16:06.360Z,8.10
2019-01-08T02:18:33.769Z,8.10
2019-01-08T02:21:01.230Z,8.10
2019-01-08T02:23:28.717Z,8.10
2019-01-08T02:25:57.074Z,8.00
2019-01-08T02:28:24.533Z,8.00
2019-01-08T02:30:52.028Z,8.10
2019-01-08T02:33:20.290Z,8.00
2019-01-08T02:35:47.754Z,8.00
2019-01-08T02:38:15.230Z,8.00
2019-01-08T02:40:43.489Z,8.00
2019-01-08T02:43:11.037Z,8.00
2019-01-08T02:45:38.603Z,8.00
2019-01-08T02:48:06.062Z,8.00
2019-01-08T02:50:33.528Z,8.00
2019-01-08T02:53:00.984Z,8.00
2019-01-08T02:55:28.441Z,8.10
2019-01-08T02:57:56.005Z,8.00
2019-01-08T03:00:23.453Z,8.10
2019-01-08T03:02:50.918Z,8.10
2019-01-08T03:05:18.412Z,8.00
2019-01-08T03:07:46.690Z,8.00
2019-01-08T03:10:14.142Z,8.00
2019-01-08T03:12:41.656Z,8.10
2019-01-08T03:15:09.173Z,8.00
2019-01-08T03:17:37.413Z,8.10
2019-01-08T03:20:04.917Z,8.10
2019-01-08T03:22:32.427Z,8.10
2019-01-08T03:24:59.888Z,8.20
2019-01-08T03:27:27.352Z,8.30
2019-01-08T03:29:54.830Z,8.20
2019-01-08T03:32:22.347Z,8.20
2019-01-08T03:34:49.897Z,8.30
2019-01-08T03:37:17.457Z,8.30
2019-01-08T03:39:45.013Z,8.30
2019-01-08T03:42:12.481Z,8.40
2019-01-08T03:44:39.983Z,8.40
2019-01-08T03:47:08.326Z,8.40
2019-01-08T03:49:35.791Z,8.40
2019-01-08T03:52:04.581Z,8.40
2019-01-08T03:54:32.041Z,8.40
2019-01-08T03:56:59.608Z,8.40
2019-01-08T03:59:27.203Z,8.40
2019-01-08T04:01:54.693Z,8.30
2019-01-08T04:04:22.181Z,8.30
2019-01-08T04:06:49.655Z,8.20
2019-01-08T04:09:17.115Z,8.30
2019-01-08T04:11:44.593Z,8.30
2019-01-08T04:14:12.843Z,8.20
2019-01-08T04:16:40.427Z,8.20
2019-01-08T04:19:07.887Z,8.20
2019-01-08T04:21:35.573Z,8.30
2019-01-08T04:24:03.673Z,8.30
2019-01-08T04:26:31.132Z,8.30
2019-01-08T04:28:58.700Z,8.30
2019-01-08T04:31:26.145Z,8.30
2019-01-08T04:33:54.383Z,8.30
2019-01-08T04:36:21.950Z,8.30
2019-01-08T04:38:49.524Z,8.40
2019-01-08T04:41:17.074Z,8.40
2019-01-08T04:43:44.540Z,8.50
2019-01-08T04:46:11.993Z,8.40
2019-01-08T04:48:39.603Z,8.40
2019-01-08T04:51:07.833Z,8.30
2019-01-08T04:53:35.303Z,8.30
2019-01-08T04:56:02.779Z,8.20
2019-01-08T04:58:30.333Z,8.20
2019-01-08T05:00:57.781Z,8.10
2019-01-08T05:03:25.234Z,8.10
2019-01-08T05:05:53.599Z,8.00
2019-01-08T05:08:20.311Z,7.90
2019-01-08T05:10:48.576Z,8.00
2019-01-08T05:13:16.023Z,8.00
2019-01-08T05:15:44.278Z,8.00
2019-01-08T05:18:11.762Z,8.00
2019-01-08T05:20:39.213Z,8.00
2019-01-08T05:23:06.692Z,8.00
2019-01-08T05:25:34.270Z,8.00
2019-01-08T05:28:02.493Z,7.70
2019-01-08T05:30:29.959Z,7.60
2019-01-08T05:32:57.473Z,7.50
2019-01-08T05:35:25.018Z,7.30
2019-01-08T05:37:52.482Z,7.20
2019-01-08T05:40:19.950Z,7.10
2019-01-08T05:42:47.406Z,7.10
2019-01-08T05:45:14.952Z,7.30
2019-01-08T05:47:42.433Z,7.20
2019-01-08T05:50:09.994Z,7.30
2019-01-08T05:52:37.547Z,7.40
2019-01-08T05:55:05.038Z,7.50
2019-01-08T05:57:32.503Z,7.50
2019-01-08T06:00:00.749Z,7.60
2019-01-08T06:02:28.219Z,7.60
2019-01-08T06:04:55.789Z,7.60
2019-01-08T06:07:23.312Z,7.50
2019-01-08T06:09:50.821Z,7.60
2019-01-08T06:12:18.426Z,7.70
2019-01-08T06:14:45.890Z,7.60
2019-01-08T06:17:13.344Z,7.60
2019-01-08T06:19:40.812Z,7.70
2019-01-08T06:22:08.365Z,7.80
2019-01-08T06:24:36.577Z,7.90
2019-01-08T06:27:04.082Z,7.90
2019-01-08T06:29:32.327Z,7.80
2019-01-08T06:31:59.861Z,7.80
2019-01-08T06:34:27.317Z,7.80
2019-01-08T06:36:54.863Z,7.80
2019-01-08T06:39:22.347Z,7.80
2019-01-08T06:41:49.865Z,7.80
2019-01-08T06:44:18.143Z,7.70
2019-01-08T06:46:45.613Z,7.70
2019-01-08T06:49:13.097Z,7.70
2019-01-08T06:51:40.585Z,7.80
2019-01-08T06:54:08.272Z,7.90
2019-01-08T06:56:35.789Z,8.00
2019-01-08T06:59:05.557Z,7.70
2019-01-08T07:01:33.025Z,7.60
2019-01-08T07:04:00.483Z,7.40
2019-01-08T07:06:27.983Z,7.20
2019-01-08T07:08:55.431Z,7.10
2019-01-08T07:11:22.982Z,7.10
2019-01-08T07:13:51.389Z,7.20
2019-01-08T07:16:18.713Z,7.20
2019-01-08T07:18:46.184Z,7.30
2019-01-08T07:21:13.758Z,7.40
2019-01-08T07:23:41.247Z,7.40
2019-01-08T07:26:09.474Z,7.60
2019-01-08T07:28:36.925Z,7.60
2019-01-08T07:31:04.392Z,7.60
2019-01-08T07:33:31.874Z,7.70
2019-01-08T07:35:59.338Z,7.80
2019-01-08T07:38:26.793Z,7.80
2019-01-08T07:40:54.255Z,7.80
2019-01-08T07:43:21.717Z,7.80
2019-01-08T07:45:49.268Z,7.90
2019-01-08T07:48:17.462Z,8.00
2019-01-08T07:50:45.016Z,7.90
2019-01-08T07:53:12.493Z,7.90
2019-01-08T07:55:40.069Z,8.00
2019-01-08T07:58:07.529Z,8.00
2019-01-08T08:00:34.993Z,8.00
2019-01-08T08:03:04.177Z,8.00
2019-01-08T08:05:31.638Z,8.00
2019-01-08T08:07:59.106Z,8.00
2019-01-08T08:10:27.381Z,8.00
2019-01-08T08:12:54.841Z,8.00
2019-01-08T08:15:22.333Z,7.90
2019-01-08T08:17:49.781Z,7.80
2019-01-08T08:20:17.289Z,7.60
2019-01-08T08:22:44.786Z,7.50
2019-01-08T08:25:12.254Z,7.40
2019-01-08T08:27:39.706Z,7.40
2019-01-08T08:30:07.171Z,7.40
2019-01-08T08:32:34.644Z,7.40
2019-01-08T08:35:08.273Z,7.50
2019-01-08T08:37:29.599Z,7.60
2019-01-08T08:39:57.846Z,7.70
2019-01-08T08:42:25.309Z,7.60
2019-01-08T08:44:53.581Z,7.70
2019-01-08T08:47:21.054Z,7.70
2019-01-08T08:49:48.531Z,7.70
2019-01-08T08:52:16.787Z,7.60
2019-01-08T08:54:44.248Z,7.60
2019-01-08T08:57:11.811Z,7.70
2019-01-08T08:59:39.375Z,7.70
2019-01-08T09:02:06.939Z,7.80
2019-01-08T09:04:34.411Z,7.80
2019-01-08T09:07:01.895Z,7.80
2019-01-08T09:09:30.137Z,7.80
2019-01-08T09:11:57.599Z,7.80
2019-01-08T09:14:25.163Z,7.90
2019-01-08T09:16:52.620Z,7.90
2019-01-08T09:19:20.189Z,7.90
2019-01-08T09:21:47.839Z,7.90
2019-01-08T09:24:16.039Z,7.90
2019-01-08T09:26:43.498Z,7.90
2019-01-08T09:29:10.985Z,8.00
2019-01-08T09:31:39.228Z,8.00
2019-01-08T09:34:06.682Z,8.00
2019-01-08T09:36:34.169Z,8.10
2019-01-08T09:39:01.622Z,8.10
2019-01-08T09:41:29.181Z,8.00
2019-01-08T09:43:56.753Z,8.10
2019-01-08T09:46:24.225Z,8.10
2019-01-08T09:48:51.673Z,8.10
2019-01-08T09:51:19.131Z,8.00
2019-01-08T09:53:46.700Z,8.00
2019-01-08T09:56:14.173Z,8.00
2019-01-08T09:58:42.455Z,8.00
2019-01-08T10:01:09.959Z,8.00
2019-01-08T10:03:37.424Z,8.00
2019-01-08T10:06:04.885Z,8.00
2019-01-08T10:08:32.362Z,8.00
2019-01-08T10:10:59.837Z,8.10
2019-01-08T10:13:27.294Z,8.10
2019-01-08T10:15:54.777Z,8.10
2019-01-08T10:18:22.338Z,8.10
2019-01-08T10:20:49.898Z,8.20
2019-01-08T10:23:17.453Z,8.20
2019-01-08T10:25:45.033Z,8.30
2019-01-08T10:28:12.504Z,8.40
2019-01-08T10:30:39.963Z,8.40
2019-01-08T10:33:07.530Z,8.40
2019-01-08T10:35:34.984Z,8.30
2019-01-08T10:38:02.763Z,8.30
2019-01-08T10:40:30.216Z,8.30
2019-01-08T10:42:57.673Z,8.30
2019-01-08T10:45:25.135Z,8.40
2019-01-08T10:47:52.696Z,8.50
2019-01-08T10:50:20.142Z,8.50
2019-01-08T10:52:47.625Z,8.40
2019-01-08T10:55:15.077Z,8.40
2019-01-08T10:57:42.645Z,8.30
2019-01-08T11:00:10.090Z,8.30
2019-01-08T11:02:37.563Z,8.30
2019-01-08T11:05:05.135Z,8.30
2019-01-08T11:07:33.093Z,8.40
2019-01-08T11:10:00.534Z,8.40
2019-01-08T11:12:28.009Z,8.40
2019-01-08T11:14:55.520Z,8.30
2019-01-08T11:17:23.729Z,8.20
2019-01-08T11:19:51.206Z,8.20
2019-01-08T11:22:18.688Z,8.20
2019-01-08T11:24:46.284Z,8.20
2019-01-08T11:27:13.777Z,8.20
2019-01-08T11:29:41.303Z,8.20
2019-01-08T11:32:08.770Z,8.30
2019-01-08T11:34:36.267Z,8.40
2019-01-08T11:37:03.771Z,8.40
2019-01-08T11:39:31.229Z,8.40
2019-01-08T11:41:58.688Z,8.50
2019-01-08T11:44:26.155Z,8.50
2019-01-08T11:46:53.622Z,8.50
2019-01-08T11:49:21.090Z,8.50
2019-01-08T11:51:48.566Z,8.40
2019-01-08T11:54:16.030Z,8.40
2019-01-08T11:56:44.313Z,8.40
2019-01-08T11:59:12.767Z,8.40
2019-01-08T12:01:40.266Z,8.40
2019-01-08T12:04:08.517Z,8.50
2019-01-08T12:06:36.011Z,8.50
2019-01-08T12:09:04.854Z,8.50
2019-01-08T12:11:32.317Z,8.50
2019-01-08T12:14:00.159Z,8.50
2019-01-08T12:16:27.653Z,8.50
2019-01-08T12:18:55.141Z,8.40
2019-01-08T12:21:22.638Z,8.30
2019-01-08T12:23:50.152Z,8.30
2019-01-08T12:26:18.439Z,8.40
2019-01-08T12:28:46.804Z,8.30
2019-01-08T12:31:14.234Z,8.30
2019-01-08T12:33:41.741Z,8.30
2019-01-08T12:36:09.320Z,8.30
2019-01-08T12:38:36.855Z,8.30
2019-01-08T12:41:04.359Z,8.30
2019-01-08T12:43:32.610Z,8.30
2019-01-08T12:46:00.158Z,8.20
2019-01-08T12:48:27.621Z,8.30
2019-01-08T12:50:55.081Z,8.30
2019-01-08T12:53:22.669Z,8.40
2019-01-08T12:55:50.244Z,8.40
2019-01-08T12:58:17.696Z,8.40
2019-01-08T13:00:46.173Z,8.50
2019-01-08T13:03:13.655Z,8.50
2019-01-08T13:05:41.877Z,8.50
2019-01-08T13:08:09.378Z,8.50
2019-01-08T13:10:36.838Z,8.60
2019-01-08T13:13:04.379Z,8.60
2019-01-08T13:15:31.848Z,8.50
2019-01-08T13:17:59.369Z,8.50
2019-01-08T13:20:26.856Z,8.40
2019-01-08T13:22:54.335Z,8.40
2019-01-08T13:25:22.314Z,8.40
2019-01-08T13:27:49.877Z,8.30
2019-01-08T13:30:17.501Z,8.30
2019-01-08T13:32:45.010Z,8.30
2019-01-08T13:35:13.237Z,8.20
2019-01-08T13:37:40.806Z,8.20
2019-01-08T13:40:08.181Z,8.20
2019-01-08T13:42:36.244Z,8.20
2019-01-08T13:45:03.764Z,8.20
2019-01-08T13:47:31.997Z,8.20
2019-01-08T13:49:59.475Z,8.20
2019-01-08T13:52:26.942Z,8.30
2019-01-08T13:54:54.424Z,8.20
2019-01-08T13:57:21.886Z,8.20
2019-01-08T13:59:49.351Z,8.20
2019-01-08T14:02:17.625Z,8.20
2019-01-08T14:04:45.933Z,8.20
2019-01-08T14:07:14.153Z,8.20
2019-01-08T14:09:41.676Z,8.20
2019-01-08T14:12:09.889Z,8.20
2019-01-08T14:14:38.871Z,8.20
2019-01-08T14:17:06.335Z,8.20
2019-01-08T14:19:33.837Z,8.10
2019-01-08T14:22:01.840Z,8.20
2019-01-08T14:24:29.368Z,8.20
2019-01-08T14:26:56.848Z,8.10
2019-01-08T14:29:24.305Z,8.10
2019-01-08T14:31:51.759Z,8.00
2019-01-08T14:34:19.217Z,8.00
2019-01-08T14:36:46.693Z,8.00
2019-01-08T14:39:14.242Z,8.00
2019-01-08T14:41:41.706Z,8.00
2019-01-08T14:44:09.179Z,8.00
2019-01-08T14:46:36.633Z,8.00
2019-01-08T14:49:04.092Z,8.00
2019-01-08T14:51:31.559Z,8.00
2019-01-08T14:53:59.031Z,7.90
2019-01-08T14:56:27.293Z,8.00
2019-01-08T14:58:54.815Z,8.00
2019-01-08T15:01:22.326Z,7.80
2019-01-08T15:03:49.783Z,7.80
2019-01-08T15:06:17.363Z,7.80
2019-01-08T15:08:44.948Z,7.80
2019-01-08T15:11:13.158Z,7.70
2019-01-08T15:13:40.598Z,7.70
2019-01-08T15:16:08.129Z,7.80
2019-01-08T15:18:35.593Z,7.80
2019-01-08T15:21:04.186Z,7.80
2019-01-08T15:23:31.733Z,7.80
2019-01-08T15:25:59.977Z,7.80
2019-01-08T15:28:27.437Z,7.80
2019-01-08T15:30:54.903Z,7.90
2019-01-08T15:33:22.356Z,7.90
2019-01-08T15:35:49.814Z,7.70
2019-01-08T15:38:17.288Z,7.30
2019-01-08T15:40:44.776Z,7.20
2019-01-08T15:43:12.339Z,7.10
2019-01-08T15:45:39.782Z,7.00
2019-01-08T15:48:07.299Z,7.00
2019-01-08T15:50:34.884Z,7.00
2019-01-08T15:53:02.349Z,7.00
2019-01-08T15:55:29.810Z,7.10
2019-01-08T15:57:57.262Z,7.20
2019-01-08T16:00:24.728Z,7.30
2019-01-08T16:02:52.193Z,7.30
2019-01-08T16:05:19.708Z,7.40
2019-01-08T16:07:48.710Z,7.40
2019-01-08T16:10:16.185Z,7.50
2019-01-08T16:12:44.448Z,7.50
2019-01-08T16:15:11.925Z,7.50
2019-01-08T16:17:39.455Z,7.50
2019-01-08T16:20:06.936Z,7.60
2019-01-08T16:22:34.497Z,7.60
2019-01-08T16:25:02.058Z,7.60
2019-01-08T16:27:29.513Z,7.60
2019-01-08T16:29:56.965Z,7.60
2019-01-08T16:32:24.548Z,7.50
2019-01-08T16:34:52.002Z,7.50
2019-01-08T16:37:19.576Z,7.50
2019-01-08T16:39:47.023Z,7.40
2019-01-08T16:42:14.491Z,7.30
2019-01-08T16:44:42.073Z,7.30
2019-01-08T16:47:09.619Z,7.30
2019-01-08T16:49:37.196Z,7.40
2019-01-08T16:52:04.748Z,7.40
2019-01-08T16:54:32.304Z,7.40
2019-01-08T16:56:59.779Z,7.50
2019-01-08T16:59:27.246Z,7.50
2019-01-08T17:01:55.476Z,7.50
2019-01-08T17:04:22.935Z,7.50
2019-01-08T17:06:50.405Z,7.50
2019-01-08T17:09:17.869Z,7.50
2019-01-08T17:11:45.327Z,7.50
2019-01-08T17:14:12.778Z,7.40
2019-01-08T17:16:40.267Z,7.50
2019-01-08T17:19:07.724Z,7.40
2019-01-08T17:21:35.168Z,7.40
2019-01-08T17:24:02.662Z,7.40
2019-01-08T17:26:30.120Z,7.30
2019-01-08T17:28:57.574Z,7.30
2019-01-08T17:31:25.044Z,7.30
2019-01-08T17:33:52.592Z,7.30
2019-01-08T17:36:20.044Z,7.40
2019-01-08T17:38:47.499Z,7.30
2019-01-08T17:41:14.957Z,7.30
2019-01-08T17:43:42.976Z,7.20
2019-01-08T17:46:10.546Z,7.20
2019-01-08T17:48:38.126Z,7.30
2019-01-08T17:51:06.401Z,7.30
2019-01-08T17:53:33.857Z,7.30
2019-01-08T17:56:01.344Z,7.30
2019-01-08T17:58:31.292Z,7.30
2019-01-08T18:00:58.818Z,7.30
2019-01-08T18:03:27.069Z,7.30
2019-01-08T18:05:54.637Z,7.30
2019-01-08T18:08:22.110Z,7.30
2019-01-08T18:10:49.653Z,7.30
2019-01-08T18:13:17.752Z,7.20
2019-01-08T18:15:46.019Z,6.80
2019-01-08T18:18:14.972Z,6.60
2019-01-08T18:20:42.475Z,6.60
2019-01-08T18:23:09.949Z,6.60
2019-01-08T18:25:37.408Z,6.60
2019-01-08T18:28:05.624Z,6.80
2019-01-08T18:30:33.131Z,6.80
2019-01-08T18:33:00.602Z,6.90
2019-01-08T18:35:28.075Z,6.90
2019-01-08T18:37:55.533Z,6.90
2019-01-08T18:40:23.762Z,6.90
2019-01-08T18:42:51.225Z,6.90
2019-01-08T18:45:18.736Z,7.00
2019-01-08T18:47:46.310Z,7.00
2019-01-08T18:50:13.761Z,7.00
2019-01-08T18:52:41.226Z,7.10
2019-01-08T18:55:10.192Z,7.00
2019-01-08T18:57:38.087Z,7.00
2019-01-08T19:00:05.551Z,6.90
2019-01-08T19:02:33.020Z,6.90
2019-01-08T19:05:00.586Z,6.90
2019-01-08T19:07:28.722Z,6.90
2019-01-08T19:09:56.184Z,6.90
2019-01-08T19:12:23.666Z,6.90
2019-01-08T19:14:51.111Z,6.90
2019-01-08T19:17:18.597Z,6.90
2019-01-08T19:19:46.156Z,6.90
2019-01-08T19:22:13.627Z,6.80
2019-01-08T19:24:41.185Z,6.90
2019-01-08T19:27:08.651Z,6.90
2019-01-08T19:29:36.118Z,6.90
2019-01-08T19:32:03.811Z,7.00
2019-01-08T19:34:32.045Z,7.00
2019-01-08T19:36:59.519Z,7.00
2019-01-08T19:39:27.745Z,7.00
2019-01-08T19:41:55.205Z,7.00
2019-01-08T19:44:22.668Z,7.10
2019-01-08T19:46:50.164Z,7.00
2019-01-08T19:49:17.741Z,7.00
2019-01-08T19:51:45.315Z,7.10
2019-01-08T19:54:14.303Z,7.10
2019-01-08T19:56:43.705Z,7.00
2019-01-08T19:59:10.013Z,7.10
2019-01-08T20:01:37.506Z,7.10
2019-01-08T20:04:05.078Z,7.20
2019-01-08T20:06:32.531Z,7.20
2019-01-08T20:09:01.508Z,7.10
2019-01-08T20:11:28.965Z,7.20
2019-01-08T20:13:56.449Z,7.20
2019-01-08T20:16:23.896Z,7.20
2019-01-08T20:18:51.341Z,7.20
2019-01-08T20:21:18.840Z,7.20
2019-01-08T20:23:46.398Z,7.20
2019-01-08T20:26:13.875Z,7.10
2019-01-08T20:28:41.321Z,7.10
2019-01-08T20:31:08.799Z,7.10
2019-01-08T20:33:36.267Z,7.10
2019-01-08T20:36:04.820Z,7.10
2019-01-08T20:38:32.304Z,7.10
2019-01-08T20:40:59.796Z,7.10
2019-01-08T20:43:28.025Z,6.90
2019-01-08T20:45:55.497Z,6.90
2019-01-08T20:48:22.965Z,6.80
2019-01-08T20:50:50.657Z,6.80
2019-01-08T20:53:18.872Z,6.60
2019-01-08T20:55:46.367Z,6.60
2019-01-08T20:58:13.829Z,6.60
2019-01-08T21:00:41.299Z,6.60
2019-01-08T21:03:08.765Z,6.70
2019-01-08T21:05:37.046Z,6.80
2019-01-08T21:08:04.499Z,6.80
2019-01-08T21:10:32.050Z,6.80
2019-01-08T21:12:59.505Z,6.90
2019-01-08T21:15:26.974Z,6.80
2019-01-08T21:17:54.451Z,6.80
2019-01-08T21:20:21.901Z,6.80
2019-01-08T21:22:49.349Z,6.90
2019-01-08T21:25:16.836Z,6.80
2019-01-08T21:27:45.055Z,6.80
2019-01-08T21:30:12.557Z,6.80
2019-01-08T21:32:40.037Z,6.80
2019-01-08T21:35:07.492Z,6.80
2019-01-08T21:37:34.962Z,6.80
2019-01-08T21:40:02.418Z,6.70
2019-01-08T21:42:29.987Z,6.70
2019-01-08T21:44:57.553Z,6.70
2019-01-08T21:47:25.017Z,6.70
2019-01-08T21:49:52.575Z,6.70
2019-01-08T21:52:20.813Z,6.70
2019-01-08T21:54:48.307Z,6.70
2019-01-08T21:57:15.774Z,6.70
2019-01-08T21:59:43.341Z,6.70
2019-01-08T22:02:10.892Z,6.60
2019-01-08T22:04:38.369Z,6.60
2019-01-08T22:07:05.837Z,6.50
2019-01-08T22:09:33.306Z,6.50
2019-01-08T22:12:00.832Z,6.40
2019-01-08T22:14:28.305Z,6.40
2019-01-08T22:16:56.698Z,6.40
2019-01-08T22:19:25.243Z,6.40
2019-01-08T22:21:52.826Z,6.50
2019-01-08T22:24:20.288Z,6.40
2019-01-08T22:26:47.763Z,6.30
2019-01-08T22:29:15.279Z,6.30
2019-01-08T22:31:42.846Z,6.30
2019-01-08T22:34:11.904Z,6.50
2019-01-08T22:36:39.456Z,6.50
2019-01-08T22:39:07.055Z,6.40
2019-01-08T22:41:35.958Z,5.90
2019-01-08T22:44:03.586Z,5.90
2019-01-08T22:46:31.142Z,5.80
2019-01-08T22:48:59.973Z,5.90
2019-01-08T22:51:28.674Z,5.90
2019-01-08T22:53:56.340Z,5.80
2019-01-08T22:56:25.715Z,5.80
2019-01-08T22:58:53.938Z,5.90
2019-01-08T23:01:21.424Z,6.00
2019-01-08T23:03:48.894Z,6.10
2019-01-08T23:06:16.476Z,6.00
2019-01-08T23:08:43.984Z,6.00
2019-01-08T23:11:12.454Z,5.90
2019-01-08T23:13:39.968Z,5.90
2019-01-08T23:16:07.423Z,5.90
2019-01-08T23:18:35.029Z,6.00
2019-01-08T23:21:04.179Z,5.90
2019-01-08T23:23:31.669Z,5.90
2019-01-08T23:26:00.639Z,5.70
2019-01-08T23:28:28.338Z,5.70
2019-01-08T23:30:55.840Z,5.60
2019-01-08T23:33:23.508Z,5.70
2019-01-08T23:35:51.017Z,5.70
2019-01-08T23:38:18.485Z,5.60
2019-01-08T23:40:46.806Z,5.70
2019-01-08T23:43:14.278Z,5.70
2019-01-08T23:45:41.734Z,5.80
2019-01-08T23:48:09.198Z,5.80
2019-01-08T23:50:36.712Z,5.60
2019-01-08T23:53:06.096Z,5.50
2019-01-08T23:55:33.586Z,5.50
2019-01-08T23:58:01.136Z,5.40
